Time;durP1;ratioP1;P1;durP2;ratioP2;P2;SDS_P1;SDS_P2;PMS_P1;PMS_P2;Temp;Humidity;BMP_temperature;BMP_pressure;BME280_temperature;BME280_humidity;BME280_pressure;Samples;Min_cycle;Max_cycle;Signal;HPM_P1;HPM_P2
2022/11/16 00:02:17;;;;;;;10.10;9.10;;;11.10;99.90;;;;;;5056831;28;20427;-77
2022/11/16 00:04:44;;;;;;;9.90;9.10;;;11.10;99.90;;;;;;5062051;28;20431;-77
2022/11/16 00:07:11;;;;;;;10.90;9.90;;;11.10;99.90;;;;;;5057093;28;20467;-77
2022/11/16 00:09:38;;;;;;;10.65;9.75;;;11.10;99.90;;;;;;5061718;28;20448;-75
2022/11/16 00:12:07;;;;;;;10.10;9.20;;;11.10;99.90;;;;;;5058759;28;20431;-78
2022/11/16 00:14:35;;;;;;;10.90;9.90;;;11.10;99.90;;;;;;5063014;28;20602;-77
2022/11/16 00:17:03;;;;;;;10.15;9.25;;;11.10;99.90;;;;;;5063242;28;20437;-77
2022/11/16 00:19:31;;;;;;;10.40;9.60;;;11.10;99.90;;;;;;5062805;28;20515;-77
2022/11/16 00:21:58;;;;;;;10.32;9.38;;;11.10;99.90;;;;;;5060611;28;20424;-77
2022/11/16 00:24:25;;;;;;;10.50;9.50;;;11.10;99.90;;;;;;5055921;28;20439;-77
2022/11/16 00:26:54;;;;;;;10.00;9.10;;;11.10;99.90;;;;;;5056448;28;20435;-77
2022/11/16 00:29:23;;;;;;;10.32;9.32;;;11.10;99.90;;;;;;5058242;28;20499;-77
2022/11/16 00:31:50;;;;;;;10.85;10.02;;;11.10;99.90;;;;;;5059177;28;20728;-77
2022/11/16 00:34:18;;;;;;;10.75;9.82;;;11.10;99.90;;;;;;5062151;28;20419;-77
2022/11/16 00:36:46;;;;;;;10.05;9.15;;;11.10;99.90;;;;;;5056535;28;20495;-77
2022/11/16 00:39:15;;;;;;;10.70;9.70;;;11.10;99.90;;;;;;5057341;28;20454;-77
2022/11/16 00:41:42;;;;;;;10.43;9.45;;;11.00;99.90;;;;;;5055950;28;20513;-77
2022/11/16 00:44:10;;;;;;;11.13;10.23;;;11.00;99.90;;;;;;5059281;28;20594;-76
2022/11/16 00:46:37;;;;;;;10.00;9.07;;;11.00;99.90;;;;;;5060641;28;20527;-77
2022/11/16 00:49:04;;;;;;;10.68;9.77;;;11.00;99.90;;;;;;5056278;28;20427;-77
2022/11/16 00:51:31;;;;;;;10.50;9.60;;;11.00;99.90;;;;;;5056688;28;20439;-75
2022/11/16 00:53:59;;;;;;;10.80;9.80;;;11.10;99.90;;;;;;5056598;28;20432;-75
2022/11/16 00:56:26;;;;;;;10.63;9.65;;;11.10;99.90;;;;;;5056418;28;20427;-75
2022/11/16 00:58:52;;;;;;;10.63;9.73;;;11.10;99.90;;;;;;5056666;28;20435;-76
2022/11/16 01:01:19;;;;;;;11.10;10.00;;;11.10;99.90;;;;;;5059174;28;20458;-75
2022/11/16 01:03:46;;;;;;;9.48;8.77;;;11.10;99.90;;;;;;5054557;28;20440;-75
2022/11/16 01:06:15;;;;;;;10.77;9.88;;;11.10;99.90;;;;;;5056274;28;20434;-74
2022/11/16 01:08:42;;;;;;;10.50;9.50;;;11.10;99.90;;;;;;5059849;28;20441;-76
2022/11/16 01:13:58;;;;;;;10.40;9.50;;;11.10;99.90;;;;;;5059235;28;20439;-77
2022/11/16 01:16:25;;;;;;;9.70;8.80;;;11.10;99.90;;;;;;5063087;28;20433;-77
2022/11/16 01:18:54;;;;;;;10.70;9.75;;;11.10;99.90;;;;;;5065649;28;20484;-78
2022/11/16 01:21:23;;;;;;;11.20;10.20;;;11.10;99.90;;;;;;5064065;28;20435;-76
2022/11/16 01:23:50;;;;;;;10.93;9.90;;;11.10;99.90;;;;;;5050725;28;20957;-74
2022/11/16 01:26:18;;;;;;;11.18;10.23;;;11.10;99.90;;;;;;5061609;28;20445;-77
2022/11/16 01:28:45;;;;;;;11.55;10.45;;;11.10;99.90;;;;;;5052141;28;20427;-74
2022/11/16 01:31:12;;;;;;;11.50;10.40;;;11.10;99.90;;;;;;5061145;28;20431;-75
2022/11/16 01:33:39;;;;;;;11.70;10.60;;;11.10;99.90;;;;;;5062165;28;20766;-74
2022/11/16 01:36:13;;;;;;;11.00;10.00;;;11.10;99.90;;;;;;5053941;28;20605;-75
2022/11/16 01:38:40;;;;;;;12.10;10.80;;;11.10;99.90;;;;;;5062045;28;20432;-76
2022/11/16 01:41:07;;;;;;;12.43;11.27;;;11.10;99.90;;;;;;5061474;28;20438;-76
2022/11/16 01:43:51;;;;;;;12.63;11.02;;;11.10;99.90;;;;;;5061421;28;20431;-75
2022/11/16 01:46:18;;;;;;;13.60;12.30;;;11.10;99.90;;;;;;5052992;28;20438;-76
2022/11/16 01:48:46;;;;;;;14.07;12.60;;;11.10;99.90;;;;;;5056483;28;20516;-78
2022/11/16 01:51:12;;;;;;;12.85;11.55;;;11.10;99.90;;;;;;5056691;28;20427;-78
2022/11/16 01:53:39;;;;;;;13.30;12.00;;;11.10;99.90;;;;;;5053564;28;20450;-77
2022/11/16 01:56:07;;;;;;;12.30;11.20;;;11.10;99.90;;;;;;5062152;28;20427;-75
2022/11/16 01:58:35;;;;;;;13.55;11.90;;;11.10;99.90;;;;;;5060131;28;20542;-78
2022/11/16 02:01:02;;;;;;;13.60;12.10;;;11.10;99.90;;;;;;5061194;28;20431;-77
2022/11/16 02:03:29;;;;;;;13.03;11.63;;;11.10;99.90;;;;;;5057026;28;20451;-77
2022/11/16 02:06:18;;;;;;;14.05;12.73;;;11.10;99.90;;;;;;5063129;28;20452;-75
2022/11/16 02:11:54;;;;;;;13.00;11.90;;;11.10;99.90;;;;;;5065927;28;20561;-75
2022/11/16 02:14:37;;;;;;;13.38;12.18;;;11.10;99.90;;;;;;5061046;28;20466;-76
2022/11/16 02:17:14;;;;;;;12.63;11.43;;;11.10;99.90;;;;;;5065134;28;20558;-76
2022/11/16 02:20:00;;;;;;;11.93;10.95;;;11.20;99.90;;;;;;5059914;28;20432;-76
2022/11/16 02:22:42;;;;;;;12.50;11.40;;;11.20;99.90;;;;;;5060667;28;20423;-76
2022/11/16 02:25:12;;;;;;;11.80;10.70;;;11.20;99.90;;;;;;5062070;28;20432;-76
2022/11/16 02:28:13;;;;;;;13.00;11.90;;;11.20;99.90;;;;;;5060121;28;20419;-76
2022/11/16 02:30:46;;;;;;;13.50;12.30;;;11.20;99.90;;;;;;5055616;28;20893;-76
2022/11/16 02:33:15;;;;;;;13.20;12.00;;;11.10;99.90;;;;;;5065738;28;20427;-76
2022/11/16 02:35:46;;;;;;;12.63;11.52;;;11.10;99.90;;;;;;5058230;28;20934;-76
2022/11/16 02:38:16;;;;;;;14.40;12.93;;;11.10;99.90;;;;;;5053822;28;20942;-76
2022/11/16 02:40:49;;;;;;;12.00;10.90;;;11.10;99.90;;;;;;5064301;28;20465;-76
2022/11/16 02:43:21;;;;;;;13.05;11.85;;;11.10;99.90;;;;;;5059088;28;20442;-75
2022/11/16 02:45:53;;;;;;;13.27;12.07;;;11.10;99.90;;;;;;5060767;28;20434;-76
2022/11/16 02:48:24;;;;;;;12.93;11.55;;;11.10;99.90;;;;;;5064298;28;20466;-75
2022/11/16 02:50:53;;;;;;;11.95;10.85;;;11.10;99.90;;;;;;5058302;28;20437;-78
2022/11/16 02:53:21;;;;;;;11.73;10.73;;;11.10;99.90;;;;;;5061614;28;20428;-75
2022/11/16 02:55:48;;;;;;;12.07;11.00;;;11.10;99.90;;;;;;5055695;28;20451;-75
2022/11/16 02:58:20;;;;;;;12.48;11.38;;;11.10;99.90;;;;;;5054434;28;20476;-76
2022/11/16 03:00:55;;;;;;;11.70;10.70;;;11.10;99.90;;;;;;5056753;28;20436;-75
2022/11/16 03:03:28;;;;;;;11.07;10.00;;;11.10;99.90;;;;;;5053790;28;20591;-76
2022/11/16 03:06:00;;;;;;;11.25;10.25;;;11.10;99.90;;;;;;5055833;28;20533;-75
2022/11/16 03:08:30;;;;;;;10.10;9.20;;;11.00;99.90;;;;;;5057991;28;21410;-76
2022/11/16 03:13:46;;;;;;;10.52;9.63;;;11.10;99.90;;;;;;5057546;28;20420;-74
2022/11/16 03:16:19;;;;;;;10.45;9.40;;;11.10;99.90;;;;;;5057373;28;20429;-77
2022/11/16 03:18:47;;;;;;;8.77;8.07;;;11.10;99.90;;;;;;5051637;28;20424;-77
2022/11/16 03:21:21;;;;;;;8.88;8.07;;;11.10;99.90;;;;;;5063410;28;20435;-75
2022/11/16 03:23:48;;;;;;;9.18;8.38;;;11.10;99.90;;;;;;5052634;28;20433;-76
2022/11/16 03:26:22;;;;;;;9.85;8.90;;;11.10;99.90;;;;;;5058493;28;20940;-75
2022/11/16 03:28:55;;;;;;;8.70;8.00;;;11.10;99.90;;;;;;5056830;28;20433;-75
2022/11/16 03:31:28;;;;;;;8.20;7.50;;;11.10;99.90;;;;;;5056772;28;20433;-75
2022/11/16 03:33:58;;;;;;;8.70;8.00;;;11.10;99.90;;;;;;5050846;28;20433;-75
2022/11/16 03:36:28;;;;;;;8.65;7.85;;;11.10;99.90;;;;;;5055677;28;20428;-75
2022/11/16 03:38:59;;;;;;;9.23;8.43;;;11.10;99.90;;;;;;5054488;28;20434;-75
2022/11/16 03:41:29;;;;;;;8.00;7.40;;;11.10;99.90;;;;;;5054614;28;20440;-75
2022/11/16 03:43:57;;;;;;;8.02;7.43;;;11.10;99.90;;;;;;5055804;28;20456;-75
2022/11/16 03:46:26;;;;;;;7.57;6.87;;;11.10;99.90;;;;;;5061497;28;20865;-75
2022/11/16 03:48:57;;;;;;;7.22;6.63;;;11.10;99.90;;;;;;5060786;28;20817;-77
2022/11/16 03:51:25;;;;;;;7.30;6.70;;;11.10;99.90;;;;;;5064189;28;20438;-77
2022/11/16 03:53:52;;;;;;;7.72;7.03;;;11.10;99.90;;;;;;5061324;28;20919;-77
2022/11/16 03:56:18;;;;;;;7.88;7.18;;;11.10;99.90;;;;;;5058051;28;20430;-77
2022/11/16 03:58:45;;;;;;;6.70;6.10;;;11.10;99.90;;;;;;5061098;28;20423;-77
2022/11/16 04:01:12;;;;;;;7.00;6.30;;;11.10;99.90;;;;;;5063907;28;20825;-77
2022/11/16 04:03:40;;;;;;;7.20;6.60;;;11.00;99.90;;;;;;5063716;28;20921;-76
2022/11/16 04:25:41;;;;;;;4.50;4.20;;;11.10;99.90;;;;;;5048925;28;20429;-76
2022/11/16 04:28:13;;;;;;;3.70;3.40;;;11.10;99.90;;;;;;5063395;28;20433;-76
2022/11/16 04:38:56;;;;;;;3.07;2.00;;;11.00;99.90;;;;;;5050886;28;20430;-76
2022/11/16 04:44:07;;;;;;;2.47;1.10;;;10.90;99.90;;;;;;5054795;28;20435;-77
2022/11/16 04:49:18;;;;;;;1.50;1.40;;;10.70;99.90;;;;;;5060461;28;20537;-77
2022/11/16 04:51:46;;;;;;;1.30;1.20;;;10.80;99.90;;;;;;5058984;28;20428;-77
2022/11/16 04:54:13;;;;;;;1.65;1.55;;;10.90;99.90;;;;;;5059554;28;20518;-77
2022/11/16 04:56:39;;;;;;;3.50;2.00;;;10.90;99.90;;;;;;5064322;28;20456;-76
2022/11/16 04:59:06;;;;;;;2.45;2.25;;;10.90;99.90;;;;;;5067072;28;20434;-76
2022/11/16 05:04:17;;;;;;;3.20;2.60;;;11.00;99.90;;;;;;5056086;28;20414;-77
2022/11/16 05:06:46;;;;;;;3.63;3.20;;;11.00;99.90;;;;;;5059553;28;20811;-78
2022/11/16 05:09:13;;;;;;;4.00;3.70;;;10.90;99.90;;;;;;5046594;28;20501;-77
2022/11/16 05:11:39;;;;;;;2.95;2.75;;;10.90;99.90;;;;;;5052887;28;20442;-77
2022/11/16 05:14:06;;;;;;;3.00;2.80;;;11.00;99.90;;;;;;5049790;28;20447;-77
2022/11/16 05:16:33;;;;;;;3.20;3.00;;;11.00;99.90;;;;;;5060578;28;20428;-77
2022/11/16 05:21:46;;;;;;;3.20;2.90;;;11.00;99.90;;;;;;5062177;28;20419;-76
2022/11/16 05:26:57;;;;;;;3.22;2.92;;;10.90;99.90;;;;;;5059876;28;20407;-76
2022/11/16 05:29:24;;;;;;;3.83;3.50;;;10.90;99.90;;;;;;5065498;28;20416;-77
2022/11/16 05:31:50;;;;;;;3.85;3.30;;;10.80;99.90;;;;;;5066734;28;20422;-76
2022/11/16 05:34:17;;;;;;;4.10;3.80;;;10.80;99.90;;;;;;5060714;28;20549;-77
2022/11/16 05:36:45;;;;;;;3.40;3.20;;;10.80;99.90;;;;;;5059169;28;20468;-79
2022/11/16 05:39:12;;;;;;;3.80;3.50;;;10.80;99.90;;;;;;5059548;28;20502;-78
2022/11/16 05:41:39;;;;;;;4.50;4.20;;;10.90;99.90;;;;;;5063982;28;20439;-77
2022/11/16 05:44:06;;;;;;;5.05;4.65;;;10.80;99.90;;;;;;5062722;28;20435;-77
2022/11/16 05:46:33;;;;;;;5.47;4.70;;;10.80;99.90;;;;;;5061908;28;20423;-78
2022/11/16 05:48:59;;;;;;;5.63;5.20;;;10.80;99.90;;;;;;5063973;28;20432;-77
2022/11/16 05:51:26;;;;;;;5.20;4.80;;;10.80;99.90;;;;;;5061437;28;20446;-76
2022/11/16 05:53:54;;;;;;;6.07;5.57;;;10.70;99.90;;;;;;5062645;28;20910;-77
2022/11/16 05:56:21;;;;;;;7.28;6.28;;;10.70;99.90;;;;;;5062152;28;20454;-77
2022/11/16 05:58:48;;;;;;;6.47;5.95;;;10.70;99.90;;;;;;5059200;28;20427;-76
2022/11/16 06:01:15;;;;;;;7.60;5.90;;;10.60;99.90;;;;;;5063633;28;20466;-76
2022/11/16 06:03:43;;;;;;;6.40;5.80;;;10.50;99.90;;;;;;5063770;28;20518;-76
2022/11/16 06:06:10;;;;;;;5.80;5.40;;;10.50;99.90;;;;;;5058999;28;20435;-83
2022/11/16 06:08:38;;;;;;;5.30;4.80;;;10.40;99.90;;;;;;5058890;28;20433;-79
2022/11/16 06:11:08;;;;;;;6.18;5.68;;;10.40;99.90;;;;;;5057187;28;20497;-78
2022/11/16 06:13:35;;;;;;;5.80;5.20;;;10.30;99.90;;;;;;5057748;28;20441;-78
2022/11/16 06:16:03;;;;;;;6.25;5.65;;;10.30;99.90;;;;;;5064183;28;20412;-78
2022/11/16 06:18:30;;;;;;;6.20;5.50;;;10.30;99.90;;;;;;5065310;28;20495;-79
2022/11/16 06:20:57;;;;;;;5.80;5.20;;;10.20;99.90;;;;;;5066597;28;20428;-77
2022/11/16 06:23:24;;;;;;;4.97;4.57;;;10.30;99.90;;;;;;5060206;28;20449;-78
2022/11/16 06:25:53;;;;;;;5.83;5.33;;;10.30;99.90;;;;;;5061890;28;20429;-78
2022/11/16 06:28:21;;;;;;;5.80;5.30;;;10.30;99.90;;;;;;5064393;28;20800;-77
2022/11/16 06:30:49;;;;;;;4.85;4.55;;;10.30;99.90;;;;;;5065097;28;20412;-78
2022/11/16 06:33:16;;;;;;;5.20;4.70;;;10.30;99.90;;;;;;5064960;28;20419;-79
2022/11/16 06:35:43;;;;;;;4.80;4.40;;;10.30;99.90;;;;;;5059932;28;20427;-76
2022/11/16 06:38:09;;;;;;;4.80;4.30;;;10.30;99.90;;;;;;5059552;28;20434;-77
2022/11/16 06:40:38;;;;;;;4.70;3.92;;;10.30;99.90;;;;;;5059191;28;20873;-77
2022/11/16 06:43:04;;;;;;;4.40;4.00;;;10.20;99.90;;;;;;5060250;28;20522;-77
2022/11/16 06:45:32;;;;;;;4.10;3.80;;;10.20;99.90;;;;;;5061603;28;20496;-77
2022/11/16 06:47:59;;;;;;;4.60;4.20;;;10.20;99.90;;;;;;5062004;28;20420;-77
2022/11/16 06:50:26;;;;;;;4.57;3.80;;;10.10;99.90;;;;;;5063306;28;20817;-78
2022/11/16 06:52:53;;;;;;;4.47;3.47;;;10.30;99.90;;;;;;5062282;28;20442;-76
2022/11/16 06:55:19;;;;;;;3.40;3.10;;;10.30;99.90;;;;;;5065679;28;20439;-77
2022/11/16 06:57:46;;;;;;;3.90;3.40;;;10.30;99.90;;;;;;5073592;28;20441;-76
2022/11/16 07:00:14;;;;;;;4.00;2.80;;;10.30;99.90;;;;;;5070637;28;20452;-74
2022/11/16 07:02:42;;;;;;;4.55;2.10;;;10.20;99.90;;;;;;5060125;28;20435;-74
2022/11/16 07:05:09;;;;;;;3.28;2.42;;;10.10;99.90;;;;;;5060682;28;20875;-75
2022/11/16 07:07:36;;;;;;;3.90;1.80;;;10.10;99.90;;;;;;5058260;28;20429;-74
2022/11/16 07:10:03;;;;;;;6.00;1.90;;;10.10;99.90;;;;;;5057112;28;20454;-74
2022/11/16 07:12:30;;;;;;;5.03;2.80;;;10.10;99.10;;;;;;5059684;28;20530;-75
2022/11/16 07:14:57;;;;;;;6.93;2.95;;;10.00;99.10;;;;;;5061734;28;20456;-74
2022/11/16 07:17:24;;;;;;;4.53;3.05;;;9.90;99.30;;;;;;5066891;28;20435;-74
2022/11/16 07:19:52;;;;;;;6.13;2.90;;;9.90;99.70;;;;;;5065869;28;20431;-74
2022/11/16 07:22:18;;;;;;;5.38;3.20;;;9.80;99.90;;;;;;5065261;28;20411;-73
2022/11/16 07:24:45;;;;;;;6.07;2.97;;;9.90;99.90;;;;;;5061066;28;20511;-74
2022/11/16 07:27:12;;;;;;;4.55;3.20;;;9.80;99.90;;;;;;5054628;28;20428;-74
2022/11/16 07:29:39;;;;;;;4.93;3.17;;;9.80;99.90;;;;;;5067099;28;20426;-74
2022/11/16 07:32:05;;;;;;;6.60;3.80;;;9.80;99.90;;;;;;5053655;28;20824;-74
2022/11/16 07:34:32;;;;;;;5.07;3.22;;;9.80;99.90;;;;;;5065306;28;20513;-74
2022/11/16 07:37:00;;;;;;;5.50;3.05;;;9.80;99.90;;;;;;5066876;28;20427;-74
2022/11/16 07:39:27;;;;;;;5.50;2.80;;;9.90;99.90;;;;;;5065990;28;20513;-74
2022/11/16 07:41:54;;;;;;;3.53;3.00;;;9.90;99.90;;;;;;5066270;28;20431;-74
2022/11/16 07:44:21;;;;;;;4.28;2.90;;;9.90;99.90;;;;;;5067446;28;20820;-74
2022/11/16 07:46:48;;;;;;;5.22;2.97;;;9.80;99.90;;;;;;5066331;28;20479;-74
2022/11/16 07:49:16;;;;;;;5.07;2.60;;;9.90;99.90;;;;;;5067171;28;20503;-74
2022/11/16 07:51:44;;;;;;;7.60;2.60;;;9.90;98.20;;;;;;5066069;28;20439;-74
2022/11/16 07:54:13;;;;;;;5.47;2.30;;;9.90;98.30;;;;;;5064969;28;20431;-75
2022/11/16 07:56:40;;;;;;;5.25;2.22;;;10.00;99.00;;;;;;5064741;28;20431;-75
2022/11/16 07:59:07;;;;;;;5.35;2.60;;;10.10;98.70;;;;;;5064409;28;20438;-74
2022/11/16 08:01:34;;;;;;;5.50;2.40;;;10.20;98.30;;;;;;5062612;28;20426;-74
2022/11/16 08:04:01;;;;;;;4.88;2.13;;;10.20;97.30;;;;;;5066281;28;20412;-74
2022/11/16 08:06:30;;;;;;;3.25;1.90;;;10.30;97.10;;;;;;5067016;28;20423;-74
2022/11/16 08:08:57;;;;;;;4.70;2.20;;;10.20;96.10;;;;;;5061274;28;20435;-74
2022/11/16 08:11:26;;;;;;;3.10;2.22;;;10.20;95.70;;;;;;5064377;28;20536;-74
2022/11/16 08:13:53;;;;;;;4.13;2.35;;;10.20;96.50;;;;;;5065613;28;20921;-74
2022/11/16 08:16:22;;;;;;;4.68;2.08;;;10.30;97.30;;;;;;5066883;28;20894;-74
2022/11/16 08:18:49;;;;;;;5.25;2.00;;;10.50;97.40;;;;;;5062667;28;20431;-75
2022/11/16 08:21:17;;;;;;;5.53;3.00;;;10.80;96.90;;;;;;5066037;28;20881;-75
2022/11/16 08:23:44;;;;;;;5.43;2.15;;;11.10;97.00;;;;;;5060724;28;20966;-73
2022/11/16 08:26:14;;;;;;;4.45;1.90;;;11.10;94.60;;;;;;5066935;28;20415;-74
2022/11/16 08:28:44;;;;;;;4.70;1.90;;;11.30;94.30;;;;;;5075356;28;20427;-73
2022/11/16 08:31:13;;;;;;;5.05;1.90;;;11.30;93.50;;;;;;5069162;28;20445;-73
2022/11/16 08:33:40;;;;;;;4.53;1.80;;;11.30;93.20;;;;;;5061661;28;21126;-73
2022/11/16 08:36:11;;;;;;;5.43;2.08;;;11.30;92.50;;;;;;5062669;28;20570;-73
2022/11/16 08:38:39;;;;;;;3.95;2.00;;;11.40;92.60;;;;;;5049753;28;20558;-73
2022/11/16 08:41:06;;;;;;;4.40;2.40;;;11.40;91.70;;;;;;5061932;28;20542;-73
2022/11/16 08:43:33;;;;;;;3.33;1.90;;;11.30;91.60;;;;;;5053162;28;20493;-73
2022/11/16 08:46:01;;;;;;;3.92;1.90;;;11.30;92.00;;;;;;5069729;28;20435;-73
2022/11/16 08:48:28;;;;;;;8.33;2.40;;;11.30;91.00;;;;;;5080496;28;20423;-73
2022/11/16 08:50:54;;;;;;;4.93;2.00;;;11.30;91.00;;;;;;5078612;28;20411;-73
2022/11/16 08:53:21;;;;;;;3.60;2.00;;;11.30;90.50;;;;;;5064132;28;20447;-72
2022/11/16 08:55:48;;;;;;;4.55;2.00;;;11.40;90.60;;;;;;5064808;28;20427;-73
2022/11/16 08:58:15;;;;;;;4.05;1.77;;;11.60;88.50;;;;;;5061813;28;20957;-73
2022/11/16 09:00:41;;;;;;;5.50;2.33;;;11.90;89.70;;;;;;5065209;28;20442;-73
2022/11/16 09:03:09;;;;;;;4.38;1.90;;;12.00;87.00;;;;;;5065663;28;20415;-73
2022/11/16 09:05:37;;;;;;;5.47;2.00;;;11.90;86.30;;;;;;5065054;28;20422;-73
2022/11/16 09:08:05;;;;;;;4.60;1.90;;;11.80;87.40;;;;;;5055380;28;20427;-73
2022/11/16 09:10:31;;;;;;;4.27;1.70;;;11.80;85.60;;;;;;5064525;28;20707;-73
2022/11/16 09:12:58;;;;;;;3.83;1.70;;;11.70;87.00;;;;;;5061911;28;20509;-73
2022/11/16 09:15:26;;;;;;;3.60;1.40;;;11.70;88.00;;;;;;5057143;28;20438;-73
2022/11/16 09:17:53;;;;;;;4.70;1.80;;;11.80;87.50;;;;;;5063031;28;20734;-73
2022/11/16 09:20:22;;;;;;;5.43;1.90;;;11.80;85.00;;;;;;5064224;28;20443;-73
2022/11/16 09:22:48;;;;;;;5.40;2.30;;;11.90;87.80;;;;;;5056374;28;20520;-73
2022/11/16 09:25:17;;;;;;;5.40;1.80;;;12.20;88.70;;;;;;5061407;28;20483;-73
2022/11/16 09:27:44;;;;;;;6.60;1.80;;;12.50;84.00;;;;;;5063016;28;20455;-73
2022/11/16 09:30:12;;;;;;;4.85;2.00;;;12.70;84.40;;;;;;5063062;28;20523;-73
2022/11/16 09:32:38;;;;;;;5.83;1.70;;;12.80;79.80;;;;;;5063207;28;20462;-74
2022/11/16 09:35:06;;;;;;;7.17;1.80;;;12.70;77.40;;;;;;5063796;28;20419;-73
2022/11/16 09:37:34;;;;;;;3.28;1.42;;;12.80;80.30;;;;;;5058461;28;20466;-73
2022/11/16 09:40:01;;;;;;;3.70;1.70;;;13.10;81.00;;;;;;5060366;28;20423;-73
2022/11/16 09:42:41;;;;;;;4.78;2.20;;;13.50;78.90;;;;;;5061472;28;20438;-73
2022/11/16 09:45:15;;;;;;;5.47;1.80;;;13.90;76.80;;;;;;5062056;28;20454;-73
2022/11/16 09:47:48;;;;;;;4.38;1.70;;;14.20;76.60;;;;;;5062677;28;20451;-73
2022/11/16 09:50:23;;;;;;;6.13;1.73;;;14.60;71.90;;;;;;5053454;28;21186;-73
2022/11/16 09:52:57;;;;;;;4.43;2.00;;;14.80;71.20;;;;;;5063045;28;20431;-73
2022/11/16 09:55:27;;;;;;;5.40;1.60;;;14.90;71.70;;;;;;5064029;28;20415;-73
2022/11/16 09:57:59;;;;;;;6.53;1.75;;;15.20;70.30;;;;;;5060624;28;20423;-73
2022/11/16 10:00:28;;;;;;;5.20;1.70;;;15.20;69.20;;;;;;5060497;28;20436;-75
2022/11/16 10:03:02;;;;;;;4.28;1.50;;;15.10;67.10;;;;;;5058650;28;20423;-73
2022/11/16 10:05:35;;;;;;;4.80;1.70;;;15.00;66.90;;;;;;5061312;28;20532;-73
2022/11/16 10:08:10;;;;;;;3.80;1.40;;;15.00;68.60;;;;;;5054325;28;20435;-73
2022/11/16 10:10:39;;;;;;;9.57;2.45;;;15.00;67.50;;;;;;5059248;28;20497;-73
2022/11/16 10:13:15;;;;;;;4.03;1.40;;;15.10;67.70;;;;;;5052884;28;20427;-73
2022/11/16 10:15:53;;;;;;;5.25;1.50;;;15.20;68.90;;;;;;5060986;28;20455;-75
2022/11/16 10:18:31;;;;;;;5.13;1.65;;;15.30;67.90;;;;;;5062646;28;20438;-74
2022/11/16 10:21:18;;;;;;;3.78;1.52;;;15.50;65.60;;;;;;5060645;28;20522;-73
2022/11/16 10:24:02;;;;;;;4.80;1.85;;;15.60;65.60;;;;;;5063055;28;20423;-74
2022/11/16 10:26:37;;;;;;;4.47;1.40;;;15.60;66.00;;;;;;5067546;28;20444;-73
2022/11/16 10:29:18;;;;;;;4.28;1.70;;;15.80;64.00;;;;;;5058257;28;20546;-75
2022/11/16 10:32:10;;;;;;;3.72;1.60;;;15.70;63.30;;;;;;5066804;28;20443;-74
2022/11/16 10:34:45;;;;;;;5.38;1.90;;;15.80;64.80;;;;;;5049190;28;20555;-74
2022/11/16 10:37:13;;;;;;;4.80;1.77;;;15.90;64.50;;;;;;5062943;28;20874;-73
2022/11/16 10:39:42;;;;;;;3.92;1.90;;;16.10;64.00;;;;;;5062389;28;20504;-73
2022/11/16 10:42:13;;;;;;;4.30;1.80;;;16.20;62.80;;;;;;5058738;28;21051;-74
2022/11/16 10:44:44;;;;;;;4.68;1.60;;;16.20;62.60;;;;;;5062106;28;20427;-74
2022/11/16 10:47:17;;;;;;;3.60;1.70;;;16.20;62.50;;;;;;5066797;28;20419;-74
2022/11/16 10:49:50;;;;;;;4.28;1.60;;;16.30;63.20;;;;;;5062554;28;20419;-74
2022/11/16 10:52:17;;;;;;;3.00;1.55;;;16.40;62.30;;;;;;5060052;28;20431;-73
2022/11/16 10:54:45;;;;;;;3.15;1.42;;;16.20;62.70;;;;;;5066186;28;20920;-73
2022/11/16 10:57:13;;;;;;;5.30;1.90;;;16.00;63.40;;;;;;5062375;28;20432;-74
2022/11/16 10:59:43;;;;;;;3.90;1.60;;;16.10;64.30;;;;;;5057864;28;21111;-73
2022/11/16 11:02:34;;;;;;;5.60;1.73;;;16.20;62.90;;;;;;5065835;28;20423;-73
2022/11/16 11:05:07;;;;;;;4.35;1.55;;;16.30;62.30;;;;;;5074851;28;20485;-72
2022/11/16 11:07:38;;;;;;;3.40;1.30;;;16.20;62.60;;;;;;5065093;28;20431;-73
2022/11/16 11:10:27;;;;;;;3.33;1.30;;;16.00;62.20;;;;;;5064421;28;20528;-73
2022/11/16 11:13:03;;;;;;;5.07;1.30;;;16.00;62.90;;;;;;5052538;28;20794;-74
2022/11/16 11:15:30;;;;;;;3.90;1.30;;;15.80;63.20;;;;;;5065698;28;20423;-73
2022/11/16 11:18:18;;;;;;;5.10;1.45;;;15.60;64.60;;;;;;5062104;28;20780;-73
2022/11/16 11:20:47;;;;;;;4.47;1.77;;;15.70;64.30;;;;;;5058972;28;20501;-73
2022/11/16 11:23:17;;;;;;;4.10;1.38;;;15.80;65.10;;;;;;5057787;28;20431;-74
2022/11/16 11:25:52;;;;;;;3.70;1.80;;;16.00;63.60;;;;;;5066454;28;20423;-74
2022/11/16 11:28:23;;;;;;;3.50;1.70;;;16.00;63.60;;;;;;5062806;28;20495;-73
2022/11/16 11:30:59;;;;;;;3.65;1.58;;;16.00;62.90;;;;;;5065753;28;20408;-74
2022/11/16 11:33:28;;;;;;;4.00;1.40;;;16.10;62.50;;;;;;5065736;28;20423;-74
2022/11/16 11:36:03;;;;;;;3.70;1.23;;;16.40;63.20;;;;;;5062527;28;20419;-74
2022/11/16 11:38:31;;;;;;;2.63;1.10;;;16.50;60.30;;;;;;5063333;28;20424;-74
2022/11/16 11:41:03;;;;;;;3.90;1.40;;;16.20;59.70;;;;;;5065847;28;20415;-74
2022/11/16 11:43:32;;;;;;;2.70;1.30;;;16.10;59.80;;;;;;5051151;28;20439;-74
2022/11/16 11:46:08;;;;;;;4.03;1.50;;;16.20;61.20;;;;;;5065117;28;20475;-74
2022/11/16 11:48:46;;;;;;;4.35;1.70;;;16.20;58.90;;;;;;5063858;28;20427;-74
2022/11/16 11:51:21;;;;;;;4.47;1.50;;;16.20;60.80;;;;;;5063471;28;20940;-75
2022/11/16 11:53:54;;;;;;;2.90;1.10;;;16.30;58.90;;;;;;5065287;28;20482;-75
2022/11/16 11:56:23;;;;;;;2.95;1.20;;;16.30;59.60;;;;;;5052132;28;20427;-74
2022/11/16 11:58:50;;;;;;;3.03;1.60;;;16.20;58.90;;;;;;5063808;28;20723;-74
2022/11/16 12:02:02;;;;;;;4.70;1.58;;;16.30;58.90;;;;;;5053190;28;20451;-73
2022/11/16 12:05:01;;;;;;;4.10;1.38;;;16.40;58.70;;;;;;5060774;28;20564;-75
2022/11/16 12:08:11;;;;;;;4.38;1.40;;;16.60;57.50;;;;;;5059306;28;20452;-75
2022/11/16 12:10:45;;;;;;;3.85;1.25;;;16.80;58.20;;;;;;5059773;28;20822;-75
2022/11/16 12:13:32;;;;;;;3.33;1.30;;;17.20;55.40;;;;;;5059067;28;20431;-72
2022/11/16 12:16:10;;;;;;;1.80;1.13;;;17.50;56.60;;;;;;5057542;28;20454;-75
2022/11/16 12:18:52;;;;;;;3.83;1.45;;;17.50;54.00;;;;;;5054905;28;20473;-74
2022/11/16 12:21:30;;;;;;;4.00;1.40;;;17.40;55.50;;;;;;5057751;28;20948;-73
2022/11/16 12:24:12;;;;;;;3.38;1.17;;;17.70;54.80;;;;;;5064114;28;20424;-74
2022/11/16 12:26:52;;;;;;;3.63;2.00;;;17.80;53.80;;;;;;5064042;28;20411;-74
2022/11/16 12:29:26;;;;;;;3.03;1.23;;;17.40;54.70;;;;;;5058454;28;20450;-74
2022/11/16 12:32:28;;;;;;;4.65;1.30;;;17.10;55.10;;;;;;5062298;28;20441;-74
2022/11/16 12:35:18;;;;;;;2.10;1.10;;;17.00;55.70;;;;;;5061210;28;20471;-74
2022/11/16 12:37:50;;;;;;;3.50;1.35;;;16.70;57.90;;;;;;5063744;28;20432;-73
2022/11/16 12:40:37;;;;;;;3.80;1.20;;;16.40;57.50;;;;;;5062465;28;20423;-73
2022/11/16 12:43:14;;;;;;;4.85;1.65;;;16.80;57.80;;;;;;5061276;28;20427;-74
2022/11/16 12:46:00;;;;;;;1.85;1.20;;;17.40;56.30;;;;;;5062963;28;20813;-74
2022/11/16 12:48:44;;;;;;;3.28;1.17;;;17.80;55.80;;;;;;5063761;28;20412;-74
2022/11/16 12:51:23;;;;;;;2.30;1.20;;;17.90;53.80;;;;;;5058350;28;20514;-73
2022/11/16 12:54:13;;;;;;;2.65;1.30;;;17.40;54.30;;;;;;5064187;28;20411;-74
2022/11/16 12:56:46;;;;;;;3.83;1.40;;;16.70;56.40;;;;;;5060895;28;20430;-74
2022/11/16 12:59:26;;;;;;;3.40;1.70;;;16.10;58.30;;;;;;5061112;28;20438;-73
2022/11/16 13:02:04;;;;;;;2.90;1.00;;;15.80;59.00;;;;;;5063277;28;20447;-71
2022/11/16 13:04:39;;;;;;;2.90;1.50;;;15.40;60.10;;;;;;5062345;28;20435;-73
2022/11/16 13:07:10;;;;;;;3.63;1.20;;;15.30;60.50;;;;;;5062056;28;20427;-73
2022/11/16 13:09:43;;;;;;;2.55;1.02;;;15.30;60.80;;;;;;5063588;28;20861;-73
2022/11/16 13:12:15;;;;;;;3.10;1.20;;;15.30;60.60;;;;;;5059304;28;20507;-72
2022/11/16 13:14:46;;;;;;;4.20;1.60;;;15.30;61.10;;;;;;5063546;28;20435;-73
2022/11/16 13:17:19;;;;;;;1.55;0.70;;;15.20;61.60;;;;;;5061018;28;20449;-72
2022/11/16 13:19:56;;;;;;;2.70;0.90;;;15.10;61.10;;;;;;5059553;28;20428;-73
2022/11/16 13:22:27;;;;;;;2.50;1.00;;;15.00;61.40;;;;;;5061778;28;20432;-72
2022/11/16 13:25:01;;;;;;;2.60;1.20;;;14.80;62.90;;;;;;5063085;28;20427;-73
2022/11/16 13:27:39;;;;;;;1.88;0.80;;;14.80;63.20;;;;;;5056576;28;20449;-73
2022/11/16 13:30:16;;;;;;;2.47;0.90;;;14.70;63.60;;;;;;5063574;28;20415;-73
2022/11/16 13:33:11;;;;;;;2.40;0.90;;;14.60;63.60;;;;;;5060399;28;20439;-73
2022/11/16 13:35:38;;;;;;;2.55;1.08;;;14.60;65.30;;;;;;5057204;28;20411;-73
2022/11/16 13:38:09;;;;;;;2.00;0.90;;;14.60;65.40;;;;;;5062436;28;20415;-73
2022/11/16 13:40:35;;;;;;;2.97;0.90;;;14.60;65.10;;;;;;5048831;28;20959;-72
2022/11/16 13:43:07;;;;;;;3.88;1.10;;;14.50;65.00;;;;;;5061746;28;20483;-73
2022/11/16 13:45:40;;;;;;;2.13;1.20;;;14.50;66.10;;;;;;5062424;28;20447;-73
2022/11/16 13:48:19;;;;;;;4.20;1.50;;;14.60;65.90;;;;;;5056470;28;20424;-72
2022/11/16 13:50:53;;;;;;;3.20;1.20;;;14.80;65.50;;;;;;5060588;28;20591;-73
2022/11/16 13:53:29;;;;;;;3.05;0.98;;;14.90;64.90;;;;;;5062722;28;20419;-73